sensor_id;sensor_type;location;lat;lon;timestamp;pressure;altitude;pressure_sealevel;temperature;humidity
16806;BME280;8520;50.102;20.010;2022-07-29T00:02:03;98535.69;;;20.65;60.80
16806;BME280;8520;50.102;20.010;2022-07-29T00:04:52;98537.59;;;20.57;60.70
16806;BME280;8520;50.102;20.010;2022-07-29T00:07:40;98540.41;;;20.43;61.13
16806;BME280;8520;50.102;20.010;2022-07-29T00:10:29;98540.59;;;20.45;61.14
16806;BME280;8520;50.102;20.010;2022-07-29T00:13:17;98540.88;;;20.61;60.72
16806;BME280;8520;50.102;20.010;2022-07-29T00:16:20;98538.28;;;20.63;60.48
16806;BME280;8520;50.102;20.010;2022-07-29T00:19:08;98535.69;;;20.65;60.47
16806;BME280;8520;50.102;20.010;2022-07-29T00:21:58;98534.16;;;20.51;60.80
16806;BME280;8520;50.102;20.010;2022-07-29T00:24:47;98538.06;;;20.61;60.61
16806;BME280;8520;50.102;20.010;2022-07-29T00:27:35;98539.56;;;20.62;60.50
16806;BME280;8520;50.102;20.010;2022-07-29T00:30:24;98541.06;;;20.63;60.57
16806;BME280;8520;50.102;20.010;2022-07-29T00:33:14;98546.13;;;20.51;60.66
16806;BME280;8520;50.102;20.010;2022-07-29T00:36:02;98547.09;;;20.54;60.45
16806;BME280;8520;50.102;20.010;2022-07-29T00:38:50;98544.19;;;20.59;60.45
16806;BME280;8520;50.102;20.010;2022-07-29T00:41:39;98543.34;;;20.64;60.62
16806;BME280;8520;50.102;20.010;2022-07-29T00:44:27;98543.44;;;20.59;60.91
16806;BME280;8520;50.102;20.010;2022-07-29T00:47:15;98544.75;;;20.58;60.90
16806;BME280;8520;50.102;20.010;2022-07-29T00:50:06;98536.34;;;20.58;60.76
16806;BME280;8520;50.102;20.010;2022-07-29T00:52:55;98539.44;;;20.54;60.90
16806;BME280;8520;50.102;20.010;2022-07-29T00:55:44;98529.66;;;20.29;61.18
16806;BME280;8520;50.102;20.010;2022-07-29T00:58:32;98534.03;;;20.43;61.19
16806;BME280;8520;50.102;20.010;2022-07-29T01:01:21;98528.50;;;20.37;61.20
16806;BME280;8520;50.102;20.010;2022-07-29T01:04:09;98527.41;;;20.27;61.26
16806;BME280;8520;50.102;20.010;2022-07-29T01:07:02;98513.41;;;20.27;61.31
16806;BME280;8520;50.102;20.010;2022-07-29T01:09:52;98517.19;;;20.30;61.19
16806;BME280;8520;50.102;20.010;2022-07-29T01:12:42;98519.75;;;20.28;61.56
16806;BME280;8520;50.102;20.010;2022-07-29T01:15:33;98518.47;;;20.29;61.57
16806;BME280;8520;50.102;20.010;2022-07-29T01:18:39;98523.97;;;20.34;61.62
16806;BME280;8520;50.102;20.010;2022-07-29T01:21:50;98520.09;;;20.24;61.93
16806;BME280;8520;50.102;20.010;2022-07-29T01:25:05;98517.91;;;20.17;61.90
16806;BME280;8520;50.102;20.010;2022-07-29T01:28:10;98516.38;;;20.03;62.35
16806;BME280;8520;50.102;20.010;2022-07-29T01:31:04;98516.78;;;20.07;62.35
16806;BME280;8520;50.102;20.010;2022-07-29T01:33:59;98514.75;;;20.07;62.13
16806;BME280;8520;50.102;20.010;2022-07-29T01:36:55;98505.44;;;20.18;61.96
16806;BME280;8520;50.102;20.010;2022-07-29T01:39:50;98515.44;;;20.13;62.03
16806;BME280;8520;50.102;20.010;2022-07-29T01:42:43;98506.28;;;20.13;62.30
16806;BME280;8520;50.102;20.010;2022-07-29T01:45:37;98512.78;;;20.21;62.40
16806;BME280;8520;50.102;20.010;2022-07-29T01:48:34;98521.63;;;20.06;62.43
16806;BME280;8520;50.102;20.010;2022-07-29T01:51:29;98511.34;;;20.14;62.36
16806;BME280;8520;50.102;20.010;2022-07-29T01:54:30;98517.00;;;20.09;62.33
16806;BME280;8520;50.102;20.010;2022-07-29T01:57:26;98516.03;;;20.06;62.22
16806;BME280;8520;50.102;20.010;2022-07-29T02:00:17;98520.13;;;20.05;62.54
16806;BME280;8520;50.102;20.010;2022-07-29T02:03:09;98512.72;;;20.08;62.46
16806;BME280;8520;50.102;20.010;2022-07-29T02:06:01;98502.72;;;20.12;61.99
16806;BME280;8520;50.102;20.010;2022-07-29T02:08:52;98508.63;;;20.09;62.03
16806;BME280;8520;50.102;20.010;2022-07-29T02:11:47;98503.88;;;20.04;62.32
16806;BME280;8520;50.102;20.010;2022-07-29T02:14:40;98500.09;;;20.01;62.59
16806;BME280;8520;50.102;20.010;2022-07-29T02:17:33;98493.22;;;20.02;62.32
16806;BME280;8520;50.102;20.010;2022-07-29T02:20:27;98494.84;;;20.11;61.96
16806;BME280;8520;50.102;20.010;2022-07-29T02:23:19;98498.91;;;19.97;62.17
16806;BME280;8520;50.102;20.010;2022-07-29T02:26:08;98495.56;;;19.98;62.66
16806;BME280;8520;50.102;20.010;2022-07-29T02:28:59;98493.50;;;19.85;62.67
16806;BME280;8520;50.102;20.010;2022-07-29T02:31:49;98490.72;;;19.99;62.42
16806;BME280;8520;50.102;20.010;2022-07-29T02:34:39;98489.63;;;19.88;62.68
16806;BME280;8520;50.102;20.010;2022-07-29T02:37:30;98485.59;;;20.03;62.46
16806;BME280;8520;50.102;20.010;2022-07-29T02:40:21;98474.56;;;19.92;62.33
16806;BME280;8520;50.102;20.010;2022-07-29T02:43:10;98478.00;;;19.84;62.82
16806;BME280;8520;50.102;20.010;2022-07-29T02:46:00;98483.34;;;19.82;62.65
16806;BME280;8520;50.102;20.010;2022-07-29T02:49:02;98473.59;;;19.89;62.67
16806;BME280;8520;50.102;20.010;2022-07-29T02:51:55;98473.84;;;19.72;62.61
16806;BME280;8520;50.102;20.010;2022-07-29T02:54:51;98470.47;;;19.60;63.26
16806;BME280;8520;50.102;20.010;2022-07-29T02:57:46;98465.47;;;19.72;62.93
16806;BME280;8520;50.102;20.010;2022-07-29T03:00:42;98472.31;;;19.58;63.57
16806;BME280;8520;50.102;20.010;2022-07-29T03:03:35;98471.59;;;19.52;63.66
16806;BME280;8520;50.102;20.010;2022-07-29T03:06:26;98469.72;;;19.60;63.21
16806;BME280;8520;50.102;20.010;2022-07-29T03:09:25;98465.22;;;19.57;63.32
16806;BME280;8520;50.102;20.010;2022-07-29T03:12:15;98469.72;;;19.60;63.01
16806;BME280;8520;50.102;20.010;2022-07-29T03:15:06;98474.84;;;19.56;63.04
16806;BME280;8520;50.102;20.010;2022-07-29T03:17:55;98470.53;;;19.55;63.30
16806;BME280;8520;50.102;20.010;2022-07-29T03:20:44;98470.00;;;19.56;63.30
16806;BME280;8520;50.102;20.010;2022-07-29T03:23:33;98470.53;;;19.55;63.29
16806;BME280;8520;50.102;20.010;2022-07-29T03:26:23;98477.91;;;19.58;63.14
16806;BME280;8520;50.102;20.010;2022-07-29T03:29:11;98463.53;;;19.67;63.22
16806;BME280;8520;50.102;20.010;2022-07-29T03:32:03;98465.03;;;19.68;63.13
16806;BME280;8520;50.102;20.010;2022-07-29T03:34:54;98472.03;;;19.75;62.94
16806;BME280;8520;50.102;20.010;2022-07-29T03:37:43;98474.59;;;19.73;62.91
16806;BME280;8520;50.102;20.010;2022-07-29T03:40:35;98478.69;;;19.72;63.42
16806;BME280;8520;50.102;20.010;2022-07-29T03:43:27;98481.19;;;19.75;63.29
16806;BME280;8520;50.102;20.010;2022-07-29T03:46:21;98488.16;;;19.69;63.38
16806;BME280;8520;50.102;20.010;2022-07-29T03:49:14;98484.97;;;19.78;63.22
16806;BME280;8520;50.102;20.010;2022-07-29T03:52:04;98480.41;;;19.75;63.15
16806;BME280;8520;50.102;20.010;2022-07-29T03:54:53;98487.69;;;19.65;63.88
16806;BME280;8520;50.102;20.010;2022-07-29T03:57:42;98482.09;;;19.65;63.68
16806;BME280;8520;50.102;20.010;2022-07-29T04:00:33;98488.66;;;19.86;63.27
16806;BME280;8520;50.102;20.010;2022-07-29T04:03:22;98482.47;;;19.74;63.26
16806;BME280;8520;50.102;20.010;2022-07-29T04:06:12;98479.22;;;19.70;63.13
16806;BME280;8520;50.102;20.010;2022-07-29T04:09:00;98489.66;;;19.70;63.58
16806;BME280;8520;50.102;20.010;2022-07-29T04:11:49;98491.59;;;19.94;62.62
16806;BME280;8520;50.102;20.010;2022-07-29T04:14:49;98485.59;;;20.03;62.68
16806;BME280;8520;50.102;20.010;2022-07-29T04:17:38;98485.53;;;19.89;63.21
16806;BME280;8520;50.102;20.010;2022-07-29T04:20:26;98488.13;;;19.87;63.07
16806;BME280;8520;50.102;20.010;2022-07-29T04:23:16;98478.75;;;19.85;63.16
16806;BME280;8520;50.102;20.010;2022-07-29T04:27:19;98476.34;;;20.08;62.14
16806;BME280;8520;50.102;20.010;2022-07-29T04:30:08;98482.97;;;20.24;61.95
16806;BME280;8520;50.102;20.010;2022-07-29T04:32:57;98474.78;;;20.39;61.60
16806;BME280;8520;50.102;20.010;2022-07-29T04:35:45;98480.72;;;20.35;61.63
16806;BME280;8520;50.102;20.010;2022-07-29T04:38:38;98468.59;;;20.46;61.16
16806;BME280;8520;50.102;20.010;2022-07-29T04:41:27;98469.19;;;20.26;61.66
16806;BME280;8520;50.102;20.010;2022-07-29T04:44:21;98468.38;;;20.57;61.34
16806;BME280;8520;50.102;20.010;2022-07-29T04:47:15;98480.03;;;20.74;60.43
16806;BME280;8520;50.102;20.010;2022-07-29T04:50:03;98485.63;;;20.74;60.79
16806;BME280;8520;50.102;20.010;2022-07-29T04:52:52;98484.00;;;20.92;60.42
16806;BME280;8520;50.102;20.010;2022-07-29T04:55:41;98493.91;;;20.93;60.39
16806;BME280;8520;50.102;20.010;2022-07-29T04:58:29;98481.00;;;20.51;60.89
16806;BME280;8520;50.102;20.010;2022-07-29T05:01:19;98479.50;;;20.89;60.37
16806;BME280;8520;50.102;20.010;2022-07-29T05:04:08;98472.03;;;20.92;60.46
16806;BME280;8520;50.102;20.010;2022-07-29T05:06:56;98466.34;;;20.97;60.48
16806;BME280;8520;50.102;20.010;2022-07-29T05:09:45;98466.34;;;20.97;60.41
16806;BME280;8520;50.102;20.010;2022-07-29T05:12:33;98464.81;;;21.10;59.70
16806;BME280;8520;50.102;20.010;2022-07-29T05:15:22;98469.69;;;20.96;60.37
16806;BME280;8520;50.102;20.010;2022-07-29T05:18:12;98468.19;;;20.95;60.58
16806;BME280;8520;50.102;20.010;2022-07-29T05:21:01;98468.94;;;20.82;60.47
16806;BME280;8520;50.102;20.010;2022-07-29T05:23:49;98474.84;;;21.05;59.83
16806;BME280;8520;50.102;20.010;2022-07-29T05:26:38;98476.56;;;21.08;60.28
16806;BME280;8520;50.102;20.010;2022-07-29T05:29:27;98479.34;;;21.21;60.01
16806;BME280;8520;50.102;20.010;2022-07-29T05:32:31;98481.63;;;21.10;60.49
16806;BME280;8520;50.102;20.010;2022-07-29T05:35:21;98474.25;;;21.46;59.49
16806;BME280;8520;50.102;20.010;2022-07-29T05:38:09;98478.94;;;21.31;59.70
16806;BME280;8520;50.102;20.010;2022-07-29T05:40:58;98466.88;;;21.56;59.47
16806;BME280;8520;50.102;20.010;2022-07-29T05:43:47;98466.50;;;21.73;59.24
16806;BME280;8520;50.102;20.010;2022-07-29T05:46:35;98471.19;;;21.57;59.76
16806;BME280;8520;50.102;20.010;2022-07-29T05:49:24;98474.41;;;21.62;59.75
16806;BME280;8520;50.102;20.010;2022-07-29T05:52:14;98468.94;;;21.56;59.72
16806;BME280;8520;50.102;20.010;2022-07-29T05:55:03;98475.81;;;21.68;59.45
16806;BME280;8520;50.102;20.010;2022-07-29T05:57:52;98483.28;;;21.86;59.43
16806;BME280;8520;50.102;20.010;2022-07-29T06:00:41;98479.03;;;21.72;59.55
16806;BME280;8520;50.102;20.010;2022-07-29T06:03:29;98481.34;;;21.81;59.45
16806;BME280;8520;50.102;20.010;2022-07-29T06:06:18;98487.03;;;21.68;59.92
16806;BME280;8520;50.102;20.010;2022-07-29T06:09:07;98479.66;;;21.99;59.61
16806;BME280;8520;50.102;20.010;2022-07-29T06:11:58;98481.00;;;22.48;58.84
16806;BME280;8520;50.102;20.010;2022-07-29T06:14:47;98484.22;;;22.23;58.84
16806;BME280;8520;50.102;20.010;2022-07-29T06:17:40;98477.19;;;22.37;59.10
16806;BME280;8520;50.102;20.010;2022-07-29T06:20:46;98485.13;;;22.47;58.64
16806;BME280;8520;50.102;20.010;2022-07-29T06:23:36;98480.81;;;22.46;58.83
16806;BME280;8520;50.102;20.010;2022-07-29T06:26:26;98485.63;;;22.87;58.18
16806;BME280;8520;50.102;20.010;2022-07-29T06:29:17;98485.63;;;22.87;58.52
16806;BME280;8520;50.102;20.010;2022-07-29T06:32:06;98487.50;;;22.92;58.50
16806;BME280;8520;50.102;20.010;2022-07-29T06:34:56;98491.06;;;22.92;58.75
16806;BME280;8520;50.102;20.010;2022-07-29T06:38:04;98490.72;;;22.96;58.46
16806;BME280;8520;50.102;20.010;2022-07-29T06:41:13;98496.16;;;23.38;58.50
16806;BME280;8520;50.102;20.010;2022-07-29T06:44:04;98493.84;;;23.21;58.43
16806;BME280;8520;50.102;20.010;2022-07-29T06:46:53;98496.22;;;23.53;58.13
16806;BME280;8520;50.102;20.010;2022-07-29T06:49:41;98493.66;;;23.63;57.84
16806;BME280;8520;50.102;20.010;2022-07-29T06:52:30;98495.38;;;23.73;57.41
16806;BME280;8520;50.102;20.010;2022-07-29T06:55:18;98487.00;;;24.11;57.14
16806;BME280;8520;50.102;20.010;2022-07-29T06:58:11;98489.03;;;24.03;57.47
16806;BME280;8520;50.102;20.010;2022-07-29T07:01:04;98489.47;;;24.38;56.44
16806;BME280;8520;50.102;20.010;2022-07-29T07:03:53;98488.88;;;24.24;56.81
16806;BME280;8520;50.102;20.010;2022-07-29T07:06:41;98481.94;;;24.56;56.71
16806;BME280;8520;50.102;20.010;2022-07-29T07:09:30;98494.34;;;24.37;56.57
16806;BME280;8520;50.102;20.010;2022-07-29T07:12:26;98494.16;;;24.43;56.91
16806;BME280;8520;50.102;20.010;2022-07-29T07:15:15;98489.44;;;24.76;56.23
16806;BME280;8520;50.102;20.010;2022-07-29T07:18:05;98479.41;;;25.13;55.00
16806;BME280;8520;50.102;20.010;2022-07-29T07:20:55;98482.28;;;24.83;55.47
16806;BME280;8520;50.102;20.010;2022-07-29T07:23:43;98485.63;;;25.04;55.43
16806;BME280;8520;50.102;20.010;2022-07-29T07:26:32;98488.81;;;24.93;55.90
16806;BME280;8520;50.102;20.010;2022-07-29T07:29:20;98485.81;;;25.06;56.11
16806;BME280;8520;50.102;20.010;2022-07-29T07:32:09;98483.09;;;25.23;54.98
16806;BME280;8520;50.102;20.010;2022-07-29T07:34:59;98495.19;;;25.16;55.38
16806;BME280;8520;50.102;20.010;2022-07-29T07:37:47;98490.91;;;24.77;56.18
16806;BME280;8520;50.102;20.010;2022-07-29T07:40:36;98491.97;;;25.20;55.00
16806;BME280;8520;50.102;20.010;2022-07-29T07:43:24;98490.78;;;25.31;55.16
16806;BME280;8520;50.102;20.010;2022-07-29T07:46:13;98487.31;;;25.07;56.11
16806;BME280;8520;50.102;20.010;2022-07-29T07:49:01;98498.41;;;25.05;55.63
16806;BME280;8520;50.102;20.010;2022-07-29T07:51:51;98499.50;;;25.17;55.66
16806;BME280;8520;50.102;20.010;2022-07-29T07:54:40;98491.56;;;25.23;55.72
16806;BME280;8520;50.102;20.010;2022-07-29T07:57:28;98493.44;;;25.29;54.76
16806;BME280;8520;50.102;20.010;2022-07-29T08:00:17;98491.84;;;25.50;54.89
16806;BME280;8520;50.102;20.010;2022-07-29T08:03:09;98491.19;;;25.75;54.57
16806;BME280;8520;50.102;20.010;2022-07-29T08:06:03;98482.91;;;25.69;54.88
16806;BME280;8520;50.102;20.010;2022-07-29T08:08:54;98484.75;;;25.82;53.88
16806;BME280;8520;50.102;20.010;2022-07-29T08:11:42;98478.06;;;25.95;53.86
16806;BME280;8520;50.102;20.010;2022-07-29T08:14:38;98482.97;;;25.94;53.82
16806;BME280;8520;50.102;20.010;2022-07-29T08:17:26;98485.53;;;25.75;53.66
16806;BME280;8520;50.102;20.010;2022-07-29T08:20:15;98485.84;;;25.87;54.08
16806;BME280;8520;50.102;20.010;2022-07-29T08:23:03;98478.25;;;26.47;53.18
16806;BME280;8520;50.102;20.010;2022-07-29T08:25:54;98478.72;;;26.35;53.22
16806;BME280;8520;50.102;20.010;2022-07-29T08:28:43;98480.19;;;26.44;52.73
16806;BME280;8520;50.102;20.010;2022-07-29T08:31:33;98491.31;;;26.59;52.27
16806;BME280;8520;50.102;20.010;2022-07-29T08:34:22;98484.53;;;26.62;51.51
16806;BME280;8520;50.102;20.010;2022-07-29T08:37:13;98481.47;;;26.85;52.14
16806;BME280;8520;50.102;20.010;2022-07-29T08:40:03;98477.63;;;26.73;52.04
16806;BME280;8520;50.102;20.010;2022-07-29T08:42:54;98480.66;;;27.10;51.69
16806;BME280;8520;50.102;20.010;2022-07-29T08:45:44;98481.91;;;27.16;50.74
16806;BME280;8520;50.102;20.010;2022-07-29T08:48:34;98485.63;;;27.02;51.31
16806;BME280;8520;50.102;20.010;2022-07-29T08:51:25;98488.44;;;26.67;51.87
16806;BME280;8520;50.102;20.010;2022-07-29T08:54:16;98479.66;;;27.15;50.72
16806;BME280;8520;50.102;20.010;2022-07-29T08:57:06;98480.22;;;27.31;50.66
16806;BME280;8520;50.102;20.010;2022-07-29T08:59:56;98475.41;;;27.24;50.38
16806;BME280;8520;50.102;20.010;2022-07-29T09:02:56;98479.09;;;27.16;50.92
16806;BME280;8520;50.102;20.010;2022-07-29T09:05:47;98473.25;;;27.14;51.23
16806;BME280;8520;50.102;20.010;2022-07-29T09:08:35;98475.06;;;26.85;51.64
16806;BME280;8520;50.102;20.010;2022-07-29T09:11:24;98472.94;;;27.10;51.27
16806;BME280;8520;50.102;20.010;2022-07-29T09:14:13;98470.16;;;27.20;51.04
16806;BME280;8520;50.102;20.010;2022-07-29T09:17:03;98477.06;;;27.44;50.57
16806;BME280;8520;50.102;20.010;2022-07-29T09:19:52;98463.94;;;27.21;50.30
16806;BME280;8520;50.102;20.010;2022-07-29T09:22:56;98473.09;;;27.57;50.44
16806;BME280;8520;50.102;20.010;2022-07-29T09:25:44;98473.19;;;27.66;49.72
16806;BME280;8520;50.102;20.010;2022-07-29T09:28:33;98470.75;;;27.63;49.54
16806;BME280;8520;50.102;20.010;2022-07-29T09:31:32;98475.16;;;27.73;50.20
16806;BME280;8520;50.102;20.010;2022-07-29T09:34:23;98453.19;;;27.91;49.10
16806;BME280;8520;50.102;20.010;2022-07-29T09:37:25;98464.13;;;28.04;49.29
16806;BME280;8520;50.102;20.010;2022-07-29T09:40:15;98448.13;;;27.90;49.63
16806;BME280;8520;50.102;20.010;2022-07-29T09:43:10;98451.28;;;28.30;48.94
16806;BME280;8520;50.102;20.010;2022-07-29T09:46:09;98449.97;;;28.51;49.11
16806;BME280;8520;50.102;20.010;2022-07-29T09:49:08;98449.78;;;28.29;49.18
16806;BME280;8520;50.102;20.010;2022-07-29T09:52:03;98448.94;;;28.46;49.22
16806;BME280;8520;50.102;20.010;2022-07-29T09:54:52;98438.03;;;28.62;49.16
16806;BME280;8520;50.102;20.010;2022-07-29T09:57:42;98437.66;;;28.95;48.85
16806;BME280;8520;50.102;20.010;2022-07-29T10:00:41;98437.03;;;28.86;48.46
16806;BME280;8520;50.102;20.010;2022-07-29T10:03:30;98437.78;;;29.06;48.06
16806;BME280;8520;50.102;20.010;2022-07-29T10:06:18;98434.03;;;28.84;48.79
16806;BME280;8520;50.102;20.010;2022-07-29T10:09:09;98431.03;;;29.50;47.18
16806;BME280;8520;50.102;20.010;2022-07-29T10:12:05;98432.38;;;29.39;47.75
16806;BME280;8520;50.102;20.010;2022-07-29T10:14:55;98426.63;;;29.08;48.57
16806;BME280;8520;50.102;20.010;2022-07-29T10:17:44;98436.25;;;29.34;48.43
16806;BME280;8520;50.102;20.010;2022-07-29T10:20:33;98428.31;;;29.62;48.19
16806;BME280;8520;50.102;20.010;2022-07-29T10:23:22;98422.81;;;29.35;48.34
16806;BME280;8520;50.102;20.010;2022-07-29T10:26:13;98411.31;;;29.52;47.71
16806;BME280;8520;50.102;20.010;2022-07-29T10:29:02;98428.63;;;29.56;47.63
16806;BME280;8520;50.102;20.010;2022-07-29T10:32:02;98413.03;;;29.77;47.66
16806;BME280;8520;50.102;20.010;2022-07-29T10:35:22;98414.84;;;30.03;47.69
16806;BME280;8520;50.102;20.010;2022-07-29T10:38:34;98411.31;;;29.93;47.69
16806;BME280;8520;50.102;20.010;2022-07-29T10:41:56;98408.09;;;30.18;47.31
16806;BME280;8520;50.102;20.010;2022-07-29T10:44:49;98409.44;;;29.76;47.57
16806;BME280;8520;50.102;20.010;2022-07-29T10:47:39;98406.13;;;30.20;47.24
16806;BME280;8520;50.102;20.010;2022-07-29T10:50:52;98397.28;;;30.16;46.54
16806;BME280;8520;50.102;20.010;2022-07-29T10:53:48;98404.44;;;29.55;47.83
16806;BME280;8520;50.102;20.010;2022-07-29T10:56:37;98395.94;;;29.86;47.33
16806;BME280;8520;50.102;20.010;2022-07-29T10:59:31;98401.56;;;29.96;46.88
16806;BME280;8520;50.102;20.010;2022-07-29T11:02:44;98396.41;;;30.14;47.24
16806;BME280;8520;50.102;20.010;2022-07-29T11:05:55;98393.97;;;29.89;47.90
16806;BME280;8520;50.102;20.010;2022-07-29T11:09:15;98390.00;;;30.35;47.57
16806;BME280;8520;50.102;20.010;2022-07-29T11:12:47;98374.91;;;30.11;47.20
16806;BME280;8520;50.102;20.010;2022-07-29T11:15:54;98380.66;;;30.44;46.96
16806;BME280;8520;50.102;20.010;2022-07-29T11:19:19;98379.59;;;30.49;47.62
16806;BME280;8520;50.102;20.010;2022-07-29T11:22:32;98382.69;;;30.10;47.41
16806;BME280;8520;50.102;20.010;2022-07-29T11:25:21;98379.53;;;30.06;47.77
16806;BME280;8520;50.102;20.010;2022-07-29T11:28:29;98378.09;;;30.48;46.92
16806;BME280;8520;50.102;20.010;2022-07-29T11:31:32;98376.66;;;30.80;46.71
16806;BME280;8520;50.102;20.010;2022-07-29T11:34:24;98372.97;;;30.56;47.15
16806;BME280;8520;50.102;20.010;2022-07-29T11:37:32;98375.31;;;30.59;46.80
16806;BME280;8520;50.102;20.010;2022-07-29T11:40:31;98377.97;;;30.67;46.97
16806;BME280;8520;50.102;20.010;2022-07-29T11:43:45;98369.72;;;31.37;46.05
16806;BME280;8520;50.102;20.010;2022-07-29T11:46:46;98371.94;;;31.51;45.91
16806;BME280;8520;50.102;20.010;2022-07-29T11:49:36;98375.28;;;31.70;45.49
16806;BME280;8520;50.102;20.010;2022-07-29T11:52:35;98373.31;;;32.20;44.80
16806;BME280;8520;50.102;20.010;2022-07-29T11:55:37;98366.25;;;32.09;44.98
16806;BME280;8520;50.102;20.010;2022-07-29T11:58:38;98365.38;;;32.18;44.68
16806;BME280;8520;50.102;20.010;2022-07-29T12:01:26;98364.09;;;32.45;44.23
16806;BME280;8520;50.102;20.010;2022-07-29T12:04:16;98356.34;;;33.22;43.35
16806;BME280;8520;50.102;20.010;2022-07-29T12:07:05;98352.50;;;33.96;41.70
16806;BME280;8520;50.102;20.010;2022-07-29T12:09:54;98352.81;;;34.02;40.88
16806;BME280;8520;50.102;20.010;2022-07-29T12:12:50;98346.50;;;34.46;40.85
16806;BME280;8520;50.102;20.010;2022-07-29T12:15:39;98331.47;;;34.46;41.07
16806;BME280;8520;50.102;20.010;2022-07-29T12:18:33;98340.13;;;35.21;39.89
16806;BME280;8520;50.102;20.010;2022-07-29T12:21:23;98338.34;;;35.14;39.97
16806;BME280;8520;50.102;20.010;2022-07-29T12:24:15;98332.53;;;35.27;39.82
16806;BME280;8520;50.102;20.010;2022-07-29T12:27:08;98330.53;;;36.27;38.33
16806;BME280;8520;50.102;20.010;2022-07-29T12:29:59;98332.00;;;36.61;37.97
16806;BME280;8520;50.102;20.010;2022-07-29T12:32:48;98336.78;;;36.39;38.41
16806;BME280;8520;50.102;20.010;2022-07-29T12:35:36;98328.81;;;37.44;37.59
16806;BME280;8520;50.102;20.010;2022-07-29T12:38:27;98321.00;;;37.47;37.12
16806;BME280;8520;50.102;20.010;2022-07-29T12:41:16;98323.56;;;37.39;36.53
16806;BME280;8520;50.102;20.010;2022-07-29T12:44:05;98316.66;;;37.46;36.94
16806;BME280;8520;50.102;20.010;2022-07-29T12:47:01;98310.19;;;38.25;36.25
16806;BME280;8520;50.102;20.010;2022-07-29T12:49:51;98315.25;;;38.48;35.67
16806;BME280;8520;50.102;20.010;2022-07-29T12:53:07;98310.25;;;37.67;35.92
16806;BME280;8520;50.102;20.010;2022-07-29T12:55:58;98310.31;;;38.51;35.77
16806;BME280;8520;50.102;20.010;2022-07-29T12:59:11;98308.66;;;38.87;35.18
16806;BME280;8520;50.102;20.010;2022-07-29T13:02:00;98305.78;;;38.87;35.67
16806;BME280;8520;50.102;20.010;2022-07-29T13:04:55;98301.91;;;38.79;35.52
16806;BME280;8520;50.102;20.010;2022-07-29T13:07:44;98307.78;;;37.77;36.57
16806;BME280;8520;50.102;20.010;2022-07-29T13:10:43;98300.44;;;37.74;36.58
16806;BME280;8520;50.102;20.010;2022-07-29T13:13:33;98295.69;;;36.86;37.51
16806;BME280;8520;50.102;20.010;2022-07-29T13:16:21;98293.91;;;35.92;38.62
16806;BME280;8520;50.102;20.010;2022-07-29T13:19:12;98290.13;;;35.71;39.11
16806;BME280;8520;50.102;20.010;2022-07-29T13:22:00;98287.19;;;35.69;39.17
16806;BME280;8520;50.102;20.010;2022-07-29T13:24:50;98298.53;;;35.20;39.81
16806;BME280;8520;50.102;20.010;2022-07-29T13:27:39;98290.44;;;34.85;40.29
16806;BME280;8520;50.102;20.010;2022-07-29T13:30:29;98299.66;;;33.97;41.66
16806;BME280;8520;50.102;20.010;2022-07-29T13:33:17;98290.16;;;34.35;41.34
16806;BME280;8520;50.102;20.010;2022-07-29T13:36:06;98280.38;;;34.54;40.87
16806;BME280;8520;50.102;20.010;2022-07-29T13:38:54;98282.50;;;34.54;41.44
16806;BME280;8520;50.102;20.010;2022-07-29T13:41:43;98279.09;;;34.57;42.09
16806;BME280;8520;50.102;20.010;2022-07-29T13:44:31;98271.03;;;35.44;40.50
16806;BME280;8520;50.102;20.010;2022-07-29T13:47:22;98258.25;;;35.63;39.83
16806;BME280;8520;50.102;20.010;2022-07-29T13:50:19;98259.03;;;35.81;39.43
16806;BME280;8520;50.102;20.010;2022-07-29T13:53:07;98249.56;;;36.64;38.98
16806;BME280;8520;50.102;20.010;2022-07-29T13:56:04;98255.03;;;36.04;38.91
16806;BME280;8520;50.102;20.010;2022-07-29T13:58:53;98252.84;;;36.74;38.28
16806;BME280;8520;50.102;20.010;2022-07-29T14:01:42;98252.13;;;36.38;39.00
16806;BME280;8520;50.102;20.010;2022-07-29T14:04:34;98246.53;;;36.24;39.06
16806;BME280;8520;50.102;20.010;2022-07-29T14:07:25;98243.13;;;37.01;37.56
16806;BME280;8520;50.102;20.010;2022-07-29T14:10:14;98234.09;;;36.53;38.24
16806;BME280;8520;50.102;20.010;2022-07-29T14:13:06;98238.31;;;36.34;39.01
16806;BME280;8520;50.102;20.010;2022-07-29T14:16:11;98240.97;;;36.46;38.20
16806;BME280;8520;50.102;20.010;2022-07-29T14:19:00;98240.41;;;36.67;38.40
16806;BME280;8520;50.102;20.010;2022-07-29T14:21:50;98234.69;;;35.98;38.29
16806;BME280;8520;50.102;20.010;2022-07-29T14:24:38;98228.94;;;35.98;38.37
16806;BME280;8520;50.102;20.010;2022-07-29T14:27:28;98225.84;;;36.10;37.93
16806;BME280;8520;50.102;20.010;2022-07-29T14:30:24;98235.00;;;35.73;38.46
16806;BME280;8520;50.102;20.010;2022-07-29T14:33:13;98243.75;;;35.59;38.93
16806;BME280;8520;50.102;20.010;2022-07-29T14:36:01;98228.41;;;35.05;39.80
16806;BME280;8520;50.102;20.010;2022-07-29T14:38:51;98217.69;;;34.90;40.35
16806;BME280;8520;50.102;20.010;2022-07-29T14:41:40;98228.50;;;34.91;40.27
16806;BME280;8520;50.102;20.010;2022-07-29T14:44:28;98227.00;;;35.38;40.04
16806;BME280;8520;50.102;20.010;2022-07-29T14:47:18;98207.44;;;35.32;39.57
16806;BME280;8520;50.102;20.010;2022-07-29T14:50:07;98204.50;;;35.30;39.71
16806;BME280;8520;50.102;20.010;2022-07-29T14:52:56;98200.59;;;34.76;40.51
16806;BME280;8520;50.102;20.010;2022-07-29T14:55:46;98193.09;;;34.69;40.77
16806;BME280;8520;50.102;20.010;2022-07-29T14:58:34;98196.50;;;34.36;41.34
16806;BME280;8520;50.102;20.010;2022-07-29T15:01:34;98192.03;;;35.08;39.92
16806;BME280;8520;50.102;20.010;2022-07-29T15:04:23;98195.31;;;34.70;40.45
16806;BME280;8520;50.102;20.010;2022-07-29T15:07:12;98199.13;;;34.75;39.87
16806;BME280;8520;50.102;20.010;2022-07-29T15:10:00;98201.38;;;34.63;39.95
16806;BME280;8520;50.102;20.010;2022-07-29T15:12:50;98197.13;;;34.48;40.56
16806;BME280;8520;50.102;20.010;2022-07-29T15:15:39;98209.41;;;34.21;40.44